sensor_id;sensor_type;location;lat;lon;timestamp;P1;durP1;ratioP1;P2;durP2;ratioP2
21786;SDS011;11055;50.870;4.316;2023-10-09T00:02:13;9.80;;;6.60;;
21786;SDS011;11055;50.870;4.316;2023-10-09T00:04:39;11.60;;;6.93;;
21786;SDS011;11055;50.870;4.316;2023-10-09T00:07:11;9.80;;;6.82;;
21786;SDS011;11055;50.870;4.316;2023-10-09T00:09:37;11.48;;;7.38;;
21786;SDS011;11055;50.870;4.316;2023-10-09T00:12:15;12.18;;;6.80;;
21786;SDS011;11055;50.870;4.316;2023-10-09T00:14:47;11.50;;;7.38;;
21786;SDS011;11055;50.870;4.316;2023-10-09T00:17:15;12.45;;;7.53;;
21786;SDS011;11055;50.870;4.316;2023-10-09T00:19:45;10.00;;;6.97;;
21786;SDS011;11055;50.870;4.316;2023-10-09T00:22:15;11.95;;;7.28;;
21786;SDS011;11055;50.870;4.316;2023-10-09T00:24:49;10.60;;;7.18;;
21786;SDS011;11055;50.870;4.316;2023-10-09T00:27:16;10.00;;;6.45;;
21786;SDS011;11055;50.870;4.316;2023-10-09T00:29:46;9.40;;;6.97;;
21786;SDS011;11055;50.870;4.316;2023-10-09T00:32:13;10.60;;;7.13;;
21786;SDS011;11055;50.870;4.316;2023-10-09T00:34:43;11.32;;;7.18;;
21786;SDS011;11055;50.870;4.316;2023-10-09T00:37:09;14.65;;;7.68;;
21786;SDS011;11055;50.870;4.316;2023-10-09T00:39:41;12.65;;;8.05;;
21786;SDS011;11055;50.870;4.316;2023-10-09T00:42:13;13.18;;;7.72;;
21786;SDS011;11055;50.870;4.316;2023-10-09T00:44:50;10.85;;;7.40;;
21786;SDS011;11055;50.870;4.316;2023-10-09T00:47:16;13.35;;;7.70;;
21786;SDS011;11055;50.870;4.316;2023-10-09T00:49:50;13.88;;;7.40;;
21786;SDS011;11055;50.870;4.316;2023-10-09T00:52:24;10.02;;;7.25;;
21786;SDS011;11055;50.870;4.316;2023-10-09T00:55:01;13.18;;;7.65;;
21786;SDS011;11055;50.870;4.316;2023-10-09T00:57:53;12.27;;;7.90;;
21786;SDS011;11055;50.870;4.316;2023-10-09T01:00:25;13.10;;;7.60;;
21786;SDS011;11055;50.870;4.316;2023-10-09T01:03:01;9.35;;;6.97;;
21786;SDS011;11055;50.870;4.316;2023-10-09T01:05:42;15.20;;;7.50;;
21786;SDS011;11055;50.870;4.316;2023-10-09T01:08:34;12.25;;;7.50;;
21786;SDS011;11055;50.870;4.316;2023-10-09T01:11:00;11.13;;;7.20;;
21786;SDS011;11055;50.870;4.316;2023-10-09T01:13:38;11.43;;;7.35;;
21786;SDS011;11055;50.870;4.316;2023-10-09T01:16:12;11.68;;;7.50;;
21786;SDS011;11055;50.870;4.316;2023-10-09T01:18:43;12.70;;;7.80;;
21786;SDS011;11055;50.870;4.316;2023-10-09T01:21:10;14.93;;;7.88;;
21786;SDS011;11055;50.870;4.316;2023-10-09T01:23:43;13.67;;;7.23;;
21786;SDS011;11055;50.870;4.316;2023-10-09T01:26:32;11.07;;;7.72;;
21786;SDS011;11055;50.870;4.316;2023-10-09T01:29:15;11.90;;;7.65;;
21786;SDS011;11055;50.870;4.316;2023-10-09T01:31:50;10.25;;;8.15;;
21786;SDS011;11055;50.870;4.316;2023-10-09T01:34:32;12.90;;;7.97;;
21786;SDS011;11055;50.870;4.316;2023-10-09T01:37:09;10.52;;;7.68;;
21786;SDS011;11055;50.870;4.316;2023-10-09T01:39:47;12.25;;;8.07;;
21786;SDS011;11055;50.870;4.316;2023-10-09T01:42:15;12.77;;;8.30;;
21786;SDS011;11055;50.870;4.316;2023-10-09T01:45:02;12.82;;;8.05;;
21786;SDS011;11055;50.870;4.316;2023-10-09T01:47:37;14.15;;;8.60;;
21786;SDS011;11055;50.870;4.316;2023-10-09T01:50:06;14.15;;;8.80;;
21786;SDS011;11055;50.870;4.316;2023-10-09T01:52:48;11.10;;;8.13;;
21786;SDS011;11055;50.870;4.316;2023-10-09T01:55:16;11.38;;;8.57;;
21786;SDS011;11055;50.870;4.316;2023-10-09T01:58:04;13.23;;;8.10;;
21786;SDS011;11055;50.870;4.316;2023-10-09T02:00:41;11.18;;;8.30;;
21786;SDS011;11055;50.870;4.316;2023-10-09T02:03:13;13.73;;;8.98;;
21786;SDS011;11055;50.870;4.316;2023-10-09T02:05:48;12.43;;;8.73;;
21786;SDS011;11055;50.870;4.316;2023-10-09T02:08:16;13.27;;;8.20;;
21786;SDS011;11055;50.870;4.316;2023-10-09T02:10:52;14.32;;;8.13;;
21786;SDS011;11055;50.870;4.316;2023-10-09T02:13:21;13.05;;;8.23;;
21786;SDS011;11055;50.870;4.316;2023-10-09T02:15:55;13.25;;;8.93;;
21786;SDS011;11055;50.870;4.316;2023-10-09T02:18:24;12.55;;;7.85;;
21786;SDS011;11055;50.870;4.316;2023-10-09T02:21:10;14.90;;;8.48;;
21786;SDS011;11055;50.870;4.316;2023-10-09T02:23:36;13.68;;;8.18;;
21786;SDS011;11055;50.870;4.316;2023-10-09T02:26:04;12.40;;;8.35;;
21786;SDS011;11055;50.870;4.316;2023-10-09T02:28:37;12.77;;;8.07;;
21786;SDS011;11055;50.870;4.316;2023-10-09T02:31:11;14.25;;;9.57;;
21786;SDS011;11055;50.870;4.316;2023-10-09T02:33:39;13.23;;;8.85;;
21786;SDS011;11055;50.870;4.316;2023-10-09T02:36:05;14.13;;;8.63;;
21786;SDS011;11055;50.870;4.316;2023-10-09T02:38:32;13.23;;;9.32;;
21786;SDS011;11055;50.870;4.316;2023-10-09T02:41:03;14.05;;;8.77;;
21786;SDS011;11055;50.870;4.316;2023-10-09T02:43:29;15.00;;;8.90;;
21786;SDS011;11055;50.870;4.316;2023-10-09T02:46:05;13.55;;;8.52;;
21786;SDS011;11055;50.870;4.316;2023-10-09T02:48:45;11.75;;;8.93;;
21786;SDS011;11055;50.870;4.316;2023-10-09T02:51:20;15.63;;;9.25;;
21786;SDS011;11055;50.870;4.316;2023-10-09T02:53:55;15.43;;;9.82;;
21786;SDS011;11055;50.870;4.316;2023-10-09T02:56:23;13.13;;;8.77;;
21786;SDS011;11055;50.870;4.316;2023-10-09T02:59:12;13.65;;;8.88;;
21786;SDS011;11055;50.870;4.316;2023-10-09T03:01:39;13.18;;;9.07;;
21786;SDS011;11055;50.870;4.316;2023-10-09T03:04:05;13.38;;;8.88;;
21786;SDS011;11055;50.870;4.316;2023-10-09T03:06:36;14.25;;;9.68;;
21786;SDS011;11055;50.870;4.316;2023-10-09T03:09:08;12.85;;;9.60;;
21786;SDS011;11055;50.870;4.316;2023-10-09T03:11:51;12.98;;;9.30;;
21786;SDS011;11055;50.870;4.316;2023-10-09T03:14:25;16.38;;;9.77;;
21786;SDS011;11055;50.870;4.316;2023-10-09T03:16:53;14.18;;;9.50;;
21786;SDS011;11055;50.870;4.316;2023-10-09T03:19:21;13.90;;;9.05;;
21786;SDS011;11055;50.870;4.316;2023-10-09T03:21:47;14.82;;;9.25;;
21786;SDS011;11055;50.870;4.316;2023-10-09T03:24:12;15.05;;;9.70;;
21786;SDS011;11055;50.870;4.316;2023-10-09T03:26:38;14.95;;;9.50;;
21786;SDS011;11055;50.870;4.316;2023-10-09T03:29:05;13.98;;;9.35;;
21786;SDS011;11055;50.870;4.316;2023-10-09T03:31:38;15.07;;;9.38;;
21786;SDS011;11055;50.870;4.316;2023-10-09T03:34:04;15.15;;;10.65;;
21786;SDS011;11055;50.870;4.316;2023-10-09T03:36:30;15.55;;;9.05;;
21786;SDS011;11055;50.870;4.316;2023-10-09T03:38:56;12.88;;;9.57;;
21786;SDS011;11055;50.870;4.316;2023-10-09T03:41:26;13.38;;;9.88;;
21786;SDS011;11055;50.870;4.316;2023-10-09T03:43:52;15.50;;;9.68;;
21786;SDS011;11055;50.870;4.316;2023-10-09T03:46:21;14.00;;;9.55;;
21786;SDS011;11055;50.870;4.316;2023-10-09T03:48:51;16.85;;;10.32;;
21786;SDS011;11055;50.870;4.316;2023-10-09T03:51:17;16.48;;;11.20;;
21786;SDS011;11055;50.870;4.316;2023-10-09T03:53:50;17.85;;;10.45;;
21786;SDS011;11055;50.870;4.316;2023-10-09T03:56:19;17.25;;;10.05;;
21786;SDS011;11055;50.870;4.316;2023-10-09T03:58:49;13.77;;;10.27;;
21786;SDS011;11055;50.870;4.316;2023-10-09T04:01:20;14.93;;;10.30;;
21786;SDS011;11055;50.870;4.316;2023-10-09T04:03:53;17.75;;;10.07;;
21786;SDS011;11055;50.870;4.316;2023-10-09T04:06:23;16.88;;;12.30;;
21786;SDS011;11055;50.870;4.316;2023-10-09T04:08:59;14.73;;;10.32;;
21786;SDS011;11055;50.870;4.316;2023-10-09T04:11:38;15.93;;;11.00;;
21786;SDS011;11055;50.870;4.316;2023-10-09T04:14:08;15.05;;;10.50;;
21786;SDS011;11055;50.870;4.316;2023-10-09T04:16:38;14.75;;;10.25;;
21786;SDS011;11055;50.870;4.316;2023-10-09T04:19:27;17.73;;;10.05;;
21786;SDS011;11055;50.870;4.316;2023-10-09T04:21:53;13.68;;;9.95;;
21786;SDS011;11055;50.870;4.316;2023-10-09T04:24:20;13.85;;;10.68;;
21786;SDS011;11055;50.870;4.316;2023-10-09T04:26:47;13.93;;;10.02;;
21786;SDS011;11055;50.870;4.316;2023-10-09T04:29:21;14.50;;;10.90;;
21786;SDS011;11055;50.870;4.316;2023-10-09T04:31:56;14.70;;;10.18;;
21786;SDS011;11055;50.870;4.316;2023-10-09T04:34:25;18.85;;;10.95;;
21786;SDS011;11055;50.870;4.316;2023-10-09T04:37:00;18.25;;;10.98;;
21786;SDS011;11055;50.870;4.316;2023-10-09T04:39:29;21.48;;;16.55;;
21786;SDS011;11055;50.870;4.316;2023-10-09T04:41:55;15.00;;;10.93;;
21786;SDS011;11055;50.870;4.316;2023-10-09T04:44:41;14.30;;;10.60;;
21786;SDS011;11055;50.870;4.316;2023-10-09T04:47:45;16.73;;;10.55;;
21786;SDS011;11055;50.870;4.316;2023-10-09T04:50:23;16.35;;;10.18;;
21786;SDS011;11055;50.870;4.316;2023-10-09T04:52:55;12.88;;;10.13;;
21786;SDS011;11055;50.870;4.316;2023-10-09T04:55:31;16.45;;;11.02;;
21786;SDS011;11055;50.870;4.316;2023-10-09T04:58:09;15.05;;;10.68;;
21786;SDS011;11055;50.870;4.316;2023-10-09T05:00:38;14.88;;;11.02;;
21786;SDS011;11055;50.870;4.316;2023-10-09T05:03:07;18.15;;;10.57;;
21786;SDS011;11055;50.870;4.316;2023-10-09T05:05:35;16.83;;;10.60;;
21786;SDS011;11055;50.870;4.316;2023-10-09T05:10:45;15.57;;;10.32;;
21786;SDS011;11055;50.870;4.316;2023-10-09T05:13:30;15.90;;;11.00;;
21786;SDS011;11055;50.870;4.316;2023-10-09T05:16:06;16.20;;;11.85;;
21786;SDS011;11055;50.870;4.316;2023-10-09T05:18:51;15.13;;;10.75;;
21786;SDS011;11055;50.870;4.316;2023-10-09T05:21:31;14.05;;;10.65;;
21786;SDS011;11055;50.870;4.316;2023-10-09T05:23:59;17.33;;;10.95;;
21786;SDS011;11055;50.870;4.316;2023-10-09T05:26:37;17.50;;;11.07;;
21786;SDS011;11055;50.870;4.316;2023-10-09T05:31:47;17.25;;;11.10;;
21786;SDS011;11055;50.870;4.316;2023-10-09T05:34:29;17.60;;;10.73;;
21786;SDS011;11055;50.870;4.316;2023-10-09T05:37:16;20.05;;;12.48;;
21786;SDS011;11055;50.870;4.316;2023-10-09T05:39:43;17.20;;;11.23;;
21786;SDS011;11055;50.870;4.316;2023-10-09T05:42:23;17.17;;;10.60;;
21786;SDS011;11055;50.870;4.316;2023-10-09T05:47:38;15.63;;;11.32;;
21786;SDS011;11055;50.870;4.316;2023-10-09T05:50:04;17.10;;;11.38;;
21786;SDS011;11055;50.870;4.316;2023-10-09T05:52:33;17.50;;;11.35;;
21786;SDS011;11055;50.870;4.316;2023-10-09T05:55:05;17.00;;;11.43;;
21786;SDS011;11055;50.870;4.316;2023-10-09T05:57:38;19.27;;;11.60;;
21786;SDS011;11055;50.870;4.316;2023-10-09T06:00:22;15.88;;;11.23;;
21786;SDS011;11055;50.870;4.316;2023-10-09T06:03:07;16.45;;;13.57;;
21786;SDS011;11055;50.870;4.316;2023-10-09T06:05:49;18.25;;;11.32;;
21786;SDS011;11055;50.870;4.316;2023-10-09T06:08:36;18.88;;;11.40;;
21786;SDS011;11055;50.870;4.316;2023-10-09T06:11:07;19.83;;;11.80;;
21786;SDS011;11055;50.870;4.316;2023-10-09T06:13:56;15.68;;;11.52;;
21786;SDS011;11055;50.870;4.316;2023-10-09T06:16:30;16.35;;;11.20;;
21786;SDS011;11055;50.870;4.316;2023-10-09T06:19:28;17.35;;;12.10;;
21786;SDS011;11055;50.870;4.316;2023-10-09T06:21:57;19.13;;;11.75;;
21786;SDS011;11055;50.870;4.316;2023-10-09T06:24:45;19.10;;;11.20;;
21786;SDS011;11055;50.870;4.316;2023-10-09T06:27:21;18.80;;;11.20;;
21786;SDS011;11055;50.870;4.316;2023-10-09T06:29:56;21.33;;;11.98;;
21786;SDS011;11055;50.870;4.316;2023-10-09T06:32:42;18.02;;;10.85;;
21786;SDS011;11055;50.870;4.316;2023-10-09T06:35:23;18.45;;;11.88;;
21786;SDS011;11055;50.870;4.316;2023-10-09T06:37:58;17.33;;;11.77;;
21786;SDS011;11055;50.870;4.316;2023-10-09T06:43:17;20.45;;;12.23;;
21786;SDS011;11055;50.870;4.316;2023-10-09T06:45:46;20.08;;;11.77;;
21786;SDS011;11055;50.870;4.316;2023-10-09T06:48:19;15.88;;;10.98;;
21786;SDS011;11055;50.870;4.316;2023-10-09T06:56:17;17.50;;;11.27;;
21786;SDS011;11055;50.870;4.316;2023-10-09T06:58:54;17.58;;;12.80;;
21786;SDS011;11055;50.870;4.316;2023-10-09T07:01:24;18.25;;;11.90;;
21786;SDS011;11055;50.870;4.316;2023-10-09T07:03:53;19.67;;;12.00;;
21786;SDS011;11055;50.870;4.316;2023-10-09T07:06:24;18.70;;;12.57;;
21786;SDS011;11055;50.870;4.316;2023-10-09T07:09:00;20.13;;;12.75;;
21786;SDS011;11055;50.870;4.316;2023-10-09T07:11:32;16.95;;;12.75;;
21786;SDS011;11055;50.870;4.316;2023-10-09T07:14:07;19.20;;;11.88;;
21786;SDS011;11055;50.870;4.316;2023-10-09T07:16:54;17.55;;;12.32;;
21786;SDS011;11055;50.870;4.316;2023-10-09T07:19:23;18.58;;;12.32;;
21786;SDS011;11055;50.870;4.316;2023-10-09T07:22:05;18.70;;;12.10;;
21786;SDS011;11055;50.870;4.316;2023-10-09T07:24:41;19.88;;;12.27;;
21786;SDS011;11055;50.870;4.316;2023-10-09T07:27:16;17.30;;;11.65;;
21786;SDS011;11055;50.870;4.316;2023-10-09T07:29:42;20.20;;;12.75;;
21786;SDS011;11055;50.870;4.316;2023-10-09T07:32:15;18.80;;;12.15;;
21786;SDS011;11055;50.870;4.316;2023-10-09T07:35:12;19.90;;;12.38;;
21786;SDS011;11055;50.870;4.316;2023-10-09T07:37:58;19.85;;;12.80;;
21786;SDS011;11055;50.870;4.316;2023-10-09T07:40:27;16.73;;;12.32;;
21786;SDS011;11055;50.870;4.316;2023-10-09T07:42:56;17.23;;;12.73;;
21786;SDS011;11055;50.870;4.316;2023-10-09T07:45:30;19.80;;;12.68;;
21786;SDS011;11055;50.870;4.316;2023-10-09T07:47:55;22.73;;;12.93;;
21786;SDS011;11055;50.870;4.316;2023-10-09T07:50:37;19.92;;;13.43;;
21786;SDS011;11055;50.870;4.316;2023-10-09T07:53:09;17.40;;;13.25;;
21786;SDS011;11055;50.870;4.316;2023-10-09T07:55:43;21.73;;;12.10;;
21786;SDS011;11055;50.870;4.316;2023-10-09T07:58:19;22.08;;;14.20;;
21786;SDS011;11055;50.870;4.316;2023-10-09T08:00:50;19.23;;;13.52;;
21786;SDS011;11055;50.870;4.316;2023-10-09T08:03:33;19.63;;;13.68;;
21786;SDS011;11055;50.870;4.316;2023-10-09T08:06:01;20.73;;;12.98;;
21786;SDS011;11055;50.870;4.316;2023-10-09T08:08:52;20.05;;;13.05;;
21786;SDS011;11055;50.870;4.316;2023-10-09T08:11:27;18.60;;;13.32;;
21786;SDS011;11055;50.870;4.316;2023-10-09T08:14:09;17.17;;;13.05;;
21786;SDS011;11055;50.870;4.316;2023-10-09T08:16:54;21.98;;;14.02;;
21786;SDS011;11055;50.870;4.316;2023-10-09T08:19:38;18.38;;;12.07;;
21786;SDS011;11055;50.870;4.316;2023-10-09T08:22:26;20.75;;;13.73;;
21786;SDS011;11055;50.870;4.316;2023-10-09T08:24:53;18.13;;;12.98;;
21786;SDS011;11055;50.870;4.316;2023-10-09T08:30:00;20.98;;;13.20;;
21786;SDS011;11055;50.870;4.316;2023-10-09T08:32:56;22.65;;;13.68;;
21786;SDS011;11055;50.870;4.316;2023-10-09T08:35:35;20.55;;;13.95;;
21786;SDS011;11055;50.870;4.316;2023-10-09T08:38:12;22.08;;;12.98;;
21786;SDS011;11055;50.870;4.316;2023-10-09T08:40:40;18.33;;;12.52;;
21786;SDS011;11055;50.870;4.316;2023-10-09T08:43:09;21.23;;;14.13;;
21786;SDS011;11055;50.870;4.316;2023-10-09T08:45:39;21.55;;;13.25;;
21786;SDS011;11055;50.870;4.316;2023-10-09T08:48:10;18.23;;;13.30;;
21786;SDS011;11055;50.870;4.316;2023-10-09T08:50:47;19.90;;;13.68;;
21786;SDS011;11055;50.870;4.316;2023-10-09T08:53:19;23.63;;;13.93;;
21786;SDS011;11055;50.870;4.316;2023-10-09T08:55:46;20.60;;;13.05;;
21786;SDS011;11055;50.870;4.316;2023-10-09T08:58:14;19.98;;;14.05;;
21786;SDS011;11055;50.870;4.316;2023-10-09T09:00:50;22.02;;;13.25;;
21786;SDS011;11055;50.870;4.316;2023-10-09T09:03:17;22.77;;;13.68;;
21786;SDS011;11055;50.870;4.316;2023-10-09T09:05:47;19.42;;;13.15;;
21786;SDS011;11055;50.870;4.316;2023-10-09T09:08:22;19.48;;;12.88;;
21786;SDS011;11055;50.870;4.316;2023-10-09T09:10:59;18.02;;;12.63;;
21786;SDS011;11055;50.870;4.316;2023-10-09T09:13:45;19.00;;;13.25;;
21786;SDS011;11055;50.870;4.316;2023-10-09T09:16:16;17.27;;;13.53;;
21786;SDS011;11055;50.870;4.316;2023-10-09T09:18:49;20.88;;;14.07;;
21786;SDS011;11055;50.870;4.316;2023-10-09T09:21:17;20.23;;;12.90;;
21786;SDS011;11055;50.870;4.316;2023-10-09T09:23:57;16.63;;;13.57;;
21786;SDS011;11055;50.870;4.316;2023-10-09T09:26:33;18.58;;;13.77;;
21786;SDS011;11055;50.870;4.316;2023-10-09T09:29:05;19.27;;;13.18;;
21786;SDS011;11055;50.870;4.316;2023-10-09T09:31:34;19.98;;;13.07;;
21786;SDS011;11055;50.870;4.316;2023-10-09T09:34:06;20.20;;;13.38;;
21786;SDS011;11055;50.870;4.316;2023-10-09T09:36:58;19.17;;;12.68;;
21786;SDS011;11055;50.870;4.316;2023-10-09T09:39:28;19.00;;;13.55;;
21786;SDS011;11055;50.870;4.316;2023-10-09T09:41:58;19.85;;;12.95;;
21786;SDS011;11055;50.870;4.316;2023-10-09T09:44:32;24.50;;;13.35;;
21786;SDS011;11055;50.870;4.316;2023-10-09T09:47:08;20.58;;;13.82;;
21786;SDS011;11055;50.870;4.316;2023-10-09T09:49:40;20.77;;;13.13;;
21786;SDS011;11055;50.870;4.316;2023-10-09T09:54:36;21.75;;;13.45;;
21786;SDS011;11055;50.870;4.316;2023-10-09T09:57:03;21.02;;;13.77;;
21786;SDS011;11055;50.870;4.316;2023-10-09T09:59:38;19.15;;;12.75;;
21786;SDS011;11055;50.870;4.316;2023-10-09T10:02:05;19.38;;;13.30;;
21786;SDS011;11055;50.870;4.316;2023-10-09T10:04:36;19.00;;;12.55;;
21786;SDS011;11055;50.870;4.316;2023-10-09T10:07:05;19.10;;;12.40;;
21786;SDS011;11055;50.870;4.316;2023-10-09T10:09:41;16.70;;;11.82;;
21786;SDS011;11055;50.870;4.316;2023-10-09T10:12:13;18.33;;;12.70;;
21786;SDS011;11055;50.870;4.316;2023-10-09T10:14:51;16.60;;;12.77;;
21786;SDS011;11055;50.870;4.316;2023-10-09T10:17:30;21.60;;;13.65;;
21786;SDS011;11055;50.870;4.316;2023-10-09T10:22:45;21.75;;;13.57;;
21786;SDS011;11055;50.870;4.316;2023-10-09T10:31:03;21.20;;;13.52;;
21786;SDS011;11055;50.870;4.316;2023-10-09T10:36:23;24.17;;;13.75;;
21786;SDS011;11055;50.870;4.316;2023-10-09T10:41:33;19.52;;;14.20;;
21786;SDS011;11055;50.870;4.316;2023-10-09T10:44:04;21.00;;;12.70;;
21786;SDS011;11055;50.870;4.316;2023-10-09T10:46:59;20.08;;;13.05;;
21786;SDS011;11055;50.870;4.316;2023-10-09T10:49:26;25.70;;;13.90;;
21786;SDS011;11055;50.870;4.316;2023-10-09T10:52:01;18.63;;;12.73;;
21786;SDS011;11055;50.870;4.316;2023-10-09T10:54:40;19.55;;;12.10;;
21786;SDS011;11055;50.870;4.316;2023-10-09T10:57:19;21.08;;;13.13;;
21786;SDS011;11055;50.870;4.316;2023-10-09T11:00:15;21.73;;;13.27;;
21786;SDS011;11055;50.870;4.316;2023-10-09T11:02:59;21.83;;;12.48;;
21786;SDS011;11055;50.870;4.316;2023-10-09T11:05:39;16.95;;;12.77;;
21786;SDS011;11055;50.870;4.316;2023-10-09T11:08:10;18.33;;;12.70;;
21786;SDS011;11055;50.870;4.316;2023-10-09T11:10:36;18.67;;;12.55;;
21786;SDS011;11055;50.870;4.316;2023-10-09T11:13:24;14.57;;;11.45;;
21786;SDS011;11055;50.870;4.316;2023-10-09T11:16:04;17.48;;;12.60;;
21786;SDS011;11055;50.870;4.316;2023-10-09T11:18:40;19.25;;;12.50;;
21786;SDS011;11055;50.870;4.316;2023-10-09T11:23:38;17.10;;;11.70;;
21786;SDS011;11055;50.870;4.316;2023-10-09T11:26:18;16.38;;;11.35;;
21786;SDS011;11055;50.870;4.316;2023-10-09T11:29:10;19.33;;;11.23;;
21786;SDS011;11055;50.870;4.316;2023-10-09T11:31:57;16.88;;;10.45;;
21786;SDS011;11055;50.870;4.316;2023-10-09T11:34:24;16.70;;;10.27;;
21786;SDS011;11055;50.870;4.316;2023-10-09T11:36:57;17.55;;;10.75;;
21786;SDS011;11055;50.870;4.316;2023-10-09T11:39:31;17.35;;;11.07;;
21786;SDS011;11055;50.870;4.316;2023-10-09T11:42:00;15.95;;;10.15;;
21786;SDS011;11055;50.870;4.316;2023-10-09T11:45:24;14.05;;;11.02;;
21786;SDS011;11055;50.870;4.316;2023-10-09T11:48:15;16.17;;;11.70;;
21786;SDS011;11055;50.870;4.316;2023-10-09T11:50:47;16.13;;;12.10;;
21786;SDS011;11055;50.870;4.316;2023-10-09T11:53:39;15.85;;;10.80;;
21786;SDS011;11055;50.870;4.316;2023-10-09T11:56:08;18.88;;;10.45;;
21786;SDS011;11055;50.870;4.316;2023-10-09T11:58:39;20.40;;;12.27;;
21786;SDS011;11055;50.870;4.316;2023-10-09T12:01:14;17.65;;;11.45;;
21786;SDS011;11055;50.870;4.316;2023-10-09T12:03:45;16.58;;;10.95;;
21786;SDS011;11055;50.870;4.316;2023-10-09T12:06:15;17.08;;;11.35;;
21786;SDS011;11055;50.870;4.316;2023-10-09T12:08:44;19.42;;;11.63;;
21786;SDS011;11055;50.870;4.316;2023-10-09T12:11:13;18.23;;;12.27;;
21786;SDS011;11055;50.870;4.316;2023-10-09T12:13:49;16.45;;;11.48;;
21786;SDS011;11055;50.870;4.316;2023-10-09T12:16:21;19.77;;;11.40;;
21786;SDS011;11055;50.870;4.316;2023-10-09T12:18:52;16.08;;;10.63;;
21786;SDS011;11055;50.870;4.316;2023-10-09T12:21:21;18.35;;;11.57;;
21786;SDS011;11055;50.870;4.316;2023-10-09T12:23:48;21.83;;;11.82;;
21786;SDS011;11055;50.870;4.316;2023-10-09T12:26:14;16.63;;;11.45;;
21786;SDS011;11055;50.870;4.316;2023-10-09T12:28:43;16.42;;;11.32;;
21786;SDS011;11055;50.870;4.316;2023-10-09T12:31:15;17.83;;;11.43;;
21786;SDS011;11055;50.870;4.316;2023-10-09T12:33:44;19.97;;;11.67;;
21786;SDS011;11055;50.870;4.316;2023-10-09T12:36:12;15.45;;;10.45;;
21786;SDS011;11055;50.870;4.316;2023-10-09T12:38:45;19.42;;;11.25;;
21786;SDS011;11055;50.870;4.316;2023-10-09T12:41:15;17.95;;;10.98;;
21786;SDS011;11055;50.870;4.316;2023-10-09T12:43:51;16.23;;;10.63;;
21786;SDS011;11055;50.870;4.316;2023-10-09T12:46:17;15.35;;;9.93;;
21786;SDS011;11055;50.870;4.316;2023-10-09T12:48:50;20.27;;;10.43;;
21786;SDS011;11055;50.870;4.316;2023-10-09T12:51:21;14.68;;;10.50;;
21786;SDS011;11055;50.870;4.316;2023-10-09T12:53:54;16.65;;;10.27;;
21786;SDS011;11055;50.870;4.316;2023-10-09T12:56:25;14.98;;;11.05;;
21786;SDS011;11055;50.870;4.316;2023-10-09T12:59:00;18.23;;;10.93;;
21786;SDS011;11055;50.870;4.316;2023-10-09T13:01:30;17.60;;;10.85;;
21786;SDS011;11055;50.870;4.316;2023-10-09T13:04:07;17.58;;;11.20;;
21786;SDS011;11055;50.870;4.316;2023-10-09T13:06:40;15.05;;;11.05;;
21786;SDS011;11055;50.870;4.316;2023-10-09T13:09:12;13.30;;;9.77;;
21786;SDS011;11055;50.870;4.316;2023-10-09T13:11:39;18.08;;;10.65;;
21786;SDS011;11055;50.870;4.316;2023-10-09T13:14:10;17.20;;;10.18;;
21786;SDS011;11055;50.870;4.316;2023-10-09T13:16:42;18.92;;;11.48;;
21786;SDS011;11055;50.870;4.316;2023-10-09T13:19:08;16.20;;;11.05;;
21786;SDS011;11055;50.870;4.316;2023-10-09T13:21:37;14.93;;;10.88;;
21786;SDS011;11055;50.870;4.316;2023-10-09T13:24:07;16.38;;;10.18;;
21786;SDS011;11055;50.870;4.316;2023-10-09T13:26:40;16.67;;;10.75;;
21786;SDS011;11055;50.870;4.316;2023-10-09T13:29:11;18.10;;;10.95;;
21786;SDS011;11055;50.870;4.316;2023-10-09T13:31:38;18.52;;;11.30;;
21786;SDS011;11055;50.870;4.316;2023-10-09T13:34:11;17.85;;;11.30;;
21786;SDS011;11055;50.870;4.316;2023-10-09T13:36:40;18.98;;;10.80;;
21786;SDS011;11055;50.870;4.316;2023-10-09T13:39:14;14.95;;;11.02;;
21786;SDS011;11055;50.870;4.316;2023-10-09T13:41:53;20.52;;;11.88;;
21786;SDS011;11055;50.870;4.316;2023-10-09T13:44:26;17.75;;;10.80;;
21786;SDS011;11055;50.870;4.316;2023-10-09T13:46:56;14.77;;;11.00;;
21786;SDS011;11055;50.870;4.316;2023-10-09T13:49:23;17.38;;;11.23;;
21786;SDS011;11055;50.870;4.316;2023-10-09T13:51:54;23.10;;;11.30;;
21786;SDS011;11055;50.870;4.316;2023-10-09T13:54:25;16.40;;;11.30;;
21786;SDS011;11055;50.870;4.316;2023-10-09T13:57:04;16.33;;;12.10;;
21786;SDS011;11055;50.870;4.316;2023-10-09T13:59:35;16.88;;;12.48;;
21786;SDS011;11055;50.870;4.316;2023-10-09T14:02:02;16.55;;;11.70;;
21786;SDS011;11055;50.870;4.316;2023-10-09T14:04:34;18.00;;;11.05;;
21786;SDS011;11055;50.870;4.316;2023-10-09T14:07:00;18.17;;;11.63;;
21786;SDS011;11055;50.870;4.316;2023-10-09T14:09:27;17.85;;;11.57;;
21786;SDS011;11055;50.870;4.316;2023-10-09T14:11:59;16.85;;;11.98;;
21786;SDS011;11055;50.870;4.316;2023-10-09T14:14:39;17.23;;;11.10;;
21786;SDS011;11055;50.870;4.316;2023-10-09T14:17:12;18.08;;;11.75;;
21786;SDS011;11055;50.870;4.316;2023-10-09T14:19:46;15.63;;;11.10;;
21786;SDS011;11055;50.870;4.316;2023-10-09T14:22:19;17.10;;;10.57;;
21786;SDS011;11055;50.870;4.316;2023-10-09T14:24:49;16.77;;;12.00;;
21786;SDS011;11055;50.870;4.316;2023-10-09T14:29:48;22.90;;;14.35;;
21786;SDS011;11055;50.870;4.316;2023-10-09T14:32:21;17.25;;;12.13;;
21786;SDS011;11055;50.870;4.316;2023-10-09T14:34:54;20.48;;;11.65;;
21786;SDS011;11055;50.870;4.316;2023-10-09T14:37:28;18.02;;;11.45;;
21786;SDS011;11055;50.870;4.316;2023-10-09T14:39:57;20.20;;;12.23;;
21786;SDS011;11055;50.870;4.316;2023-10-09T14:42:23;15.23;;;11.27;;
21786;SDS011;11055;50.870;4.316;2023-10-09T14:44:52;23.38;;;11.50;;
21786;SDS011;11055;50.870;4.316;2023-10-09T14:47:20;17.33;;;11.38;;
21786;SDS011;11055;50.870;4.316;2023-10-09T14:49:49;19.08;;;12.05;;
21786;SDS011;11055;50.870;4.316;2023-10-09T14:52:17;21.75;;;11.88;;
21786;SDS011;11055;50.870;4.316;2023-10-09T14:54:45;24.65;;;12.77;;
21786;SDS011;11055;50.870;4.316;2023-10-09T14:57:11;15.50;;;12.35;;
21786;SDS011;11055;50.870;4.316;2023-10-09T14:59:38;16.35;;;11.68;;
21786;SDS011;11055;50.870;4.316;2023-10-09T15:02:05;19.08;;;12.05;;
21786;SDS011;11055;50.870;4.316;2023-10-09T15:04:32;19.92;;;12.05;;
21786;SDS011;11055;50.870;4.316;2023-10-09T15:07:01;19.08;;;12.25;;
21786;SDS011;11055;50.870;4.316;2023-10-09T15:09:27;15.75;;;12.50;;
21786;SDS011;11055;50.870;4.316;2023-10-09T15:11:56;23.92;;;13.52;;
21786;SDS011;11055;50.870;4.316;2023-10-09T15:14:23;16.77;;;11.68;;
21786;SDS011;11055;50.870;4.316;2023-10-09T15:16:48;18.02;;;11.90;;
21786;SDS011;11055;50.870;4.316;2023-10-09T15:19:15;16.77;;;11.43;;
21786;SDS011;11055;50.870;4.316;2023-10-09T15:21:45;17.90;;;11.18;;
21786;SDS011;11055;50.870;4.316;2023-10-09T15:24:11;18.15;;;11.55;;
21786;SDS011;11055;50.870;4.316;2023-10-09T15:26:46;18.85;;;11.70;;
21786;SDS011;11055;50.870;4.316;2023-10-09T15:29:18;17.88;;;11.77;;
21786;SDS011;11055;50.870;4.316;2023-10-09T15:31:48;17.42;;;12.10;;
21786;SDS011;11055;50.870;4.316;2023-10-09T15:34:15;17.25;;;11.60;;
21786;SDS011;11055;50.870;4.316;2023-10-09T15:36:44;20.13;;;12.07;;
21786;SDS011;11055;50.870;4.316;2023-10-09T15:39:12;16.13;;;11.48;;
21786;SDS011;11055;50.870;4.316;2023-10-09T15:41:38;15.10;;;11.27;;
21786;SDS011;11055;50.870;4.316;2023-10-09T15:44:05;20.10;;;12.10;;